Time;durP1;ratioP1;P1;durP2;ratioP2;P2;SDS_P1;SDS_P2;PMS_P1;PMS_P2;Temp;Humidity;BMP_temperature;BMP_pressure;BME280_temperature;BME280_humidity;BME280_pressure;Samples;Min_cycle;Max_cycle;Signal;HPM_P1;HPM_P2
2023/02/18 00:00:27;;;;;;;23.40;19.53;;;11.50;99.90;;;;;;5028961;28;20184;-78
2023/02/18 00:02:54;;;;;;;25.13;19.07;;;11.50;99.90;;;;;;5029998;28;20617;-78
2023/02/18 00:05:21;;;;;;;24.70;19.80;;;11.50;99.90;;;;;;5036381;28;20521;-78
2023/02/18 00:07:46;;;;;;;25.30;20.03;;;11.50;99.90;;;;;;5028784;28;20441;-77
2023/02/18 00:10:14;;;;;;;23.03;18.53;;;11.50;99.90;;;;;;5012065;28;20444;-77
2023/02/18 00:12:40;;;;;;;24.27;19.33;;;11.60;99.90;;;;;;5030141;28;20210;-78
2023/02/18 00:15:07;;;;;;;23.97;19.30;;;11.50;99.90;;;;;;5030194;28;20417;-78
2023/02/18 00:17:32;;;;;;;23.57;19.57;;;11.50;99.90;;;;;;5028636;28;20417;-78
2023/02/18 00:19:58;;;;;;;21.00;18.63;;;11.50;99.90;;;;;;5029897;28;20457;-78
2023/02/18 00:22:24;;;;;;;29.83;18.50;;;11.40;99.90;;;;;;5030046;28;20850;-78
2023/02/18 00:24:50;;;;;;;23.10;20.07;;;11.50;99.90;;;;;;5029986;28;20183;-79
2023/02/18 00:27:16;;;;;;;23.57;18.07;;;11.40;99.90;;;;;;5028637;28;20598;-78
2023/02/18 00:29:42;;;;;;;25.60;19.67;;;11.50;99.90;;;;;;5029725;28;20500;-78
2023/02/18 00:32:07;;;;;;;23.73;19.30;;;11.50;99.90;;;;;;5030051;28;20198;-79
2023/02/18 00:34:33;;;;;;;24.47;19.77;;;11.40;99.90;;;;;;5028304;28;20190;-78
2023/02/18 00:36:59;;;;;;;26.70;19.67;;;11.40;99.90;;;;;;5028840;28;20205;-78
2023/02/18 00:39:25;;;;;;;23.43;19.23;;;11.40;99.90;;;;;;5028167;28;20222;-79
2023/02/18 00:41:50;;;;;;;30.43;20.40;;;11.40;99.90;;;;;;5030475;28;20198;-78
2023/02/18 00:44:16;;;;;;;28.23;21.07;;;11.40;99.90;;;;;;5028497;28;21041;-78
2023/02/18 00:46:42;;;;;;;24.50;19.47;;;11.40;99.90;;;;;;5029792;28;20273;-78
2023/02/18 00:49:08;;;;;;;25.60;19.83;;;11.40;99.90;;;;;;5028158;28;20179;-78
2023/02/18 00:51:34;;;;;;;23.83;17.93;;;11.40;99.90;;;;;;5027154;28;20475;-78
2023/02/18 00:54:00;;;;;;;26.33;19.40;;;11.40;99.90;;;;;;5028170;28;20409;-79
2023/02/18 00:56:26;;;;;;;28.20;19.33;;;11.40;99.90;;;;;;5024657;28;20778;-79
2023/02/18 00:58:52;;;;;;;22.47;17.50;;;11.40;99.90;;;;;;5028009;28;20210;-78
2023/02/18 01:01:18;;;;;;;24.83;17.70;;;11.40;99.90;;;;;;5027095;28;20740;-78
2023/02/18 01:03:44;;;;;;;26.97;19.00;;;11.40;99.90;;;;;;5029451;28;20258;-78
2023/02/18 01:06:11;;;;;;;21.63;17.13;;;11.40;99.90;;;;;;5017130;28;20551;-79
2023/02/18 01:08:37;;;;;;;24.07;16.40;;;11.40;99.90;;;;;;5028973;28;20183;-78
2023/02/18 01:11:04;;;;;;;21.07;17.73;;;11.40;99.90;;;;;;5029226;28;20519;-78
2023/02/18 01:13:30;;;;;;;22.27;16.83;;;11.40;99.90;;;;;;5027728;28;20617;-78
2023/02/18 01:15:56;;;;;;;19.53;15.50;;;11.30;99.90;;;;;;5029197;28;20745;-78
2023/02/18 01:18:23;;;;;;;19.53;14.87;;;11.40;99.90;;;;;;5027903;28;20214;-79
2023/02/18 01:20:49;;;;;;;17.93;15.60;;;11.30;99.90;;;;;;5029098;28;20951;-78
2023/02/18 01:23:15;;;;;;;18.97;14.93;;;11.40;99.90;;;;;;5028734;28;20436;-78
2023/02/18 01:25:41;;;;;;;20.33;16.00;;;11.30;99.90;;;;;;5029052;28;20746;-78
2023/02/18 01:28:07;;;;;;;18.37;15.70;;;11.30;99.90;;;;;;5028687;28;20413;-79
2023/02/18 01:30:33;;;;;;;28.03;17.00;;;11.30;99.90;;;;;;5028943;28;20182;-78
2023/02/18 01:32:59;;;;;;;20.03;16.03;;;11.30;99.90;;;;;;5029304;28;20443;-78
2023/02/18 01:35:25;;;;;;;21.70;15.20;;;11.40;99.90;;;;;;5029694;28;20662;-78
2023/02/18 01:37:51;;;;;;;21.23;16.17;;;11.40;99.90;;;;;;5024228;28;20182;-78
2023/02/18 01:40:24;;;;;;;20.23;15.13;;;11.30;99.90;;;;;;5029650;28;20421;-77
2023/02/18 01:42:50;;;;;;;18.57;15.23;;;11.40;99.90;;;;;;5023956;28;20433;-78
2023/02/18 01:45:34;;;;;;;21.20;14.57;;;11.30;99.90;;;;;;5029621;28;20781;-77
2023/02/18 01:48:08;;;;;;;18.00;14.13;;;11.40;99.90;;;;;;5027334;28;20479;-77
2023/02/18 01:50:38;;;;;;;19.60;14.43;;;11.30;99.90;;;;;;5028374;28;20405;-78
2023/02/18 01:53:04;;;;;;;18.37;15.40;;;11.30;99.90;;;;;;5029388;28;20452;-78
2023/02/18 01:55:32;;;;;;;21.90;15.47;;;11.30;99.90;;;;;;5029265;28;20421;-78
2023/02/18 01:57:57;;;;;;;20.00;16.10;;;11.20;99.90;;;;;;5028130;28;20429;-77
2023/02/18 02:00:23;;;;;;;17.03;13.80;;;11.20;99.90;;;;;;5029523;28;20428;-79
2023/02/18 02:02:51;;;;;;;20.30;15.20;;;11.30;99.90;;;;;;5029541;28;20629;-77
2023/02/18 02:05:19;;;;;;;18.53;13.60;;;11.30;99.90;;;;;;5028225;28;20350;-77
2023/02/18 02:07:46;;;;;;;18.27;14.80;;;11.30;99.90;;;;;;5031757;28;20412;-78
2023/02/18 02:10:14;;;;;;;17.07;14.00;;;11.30;99.90;;;;;;5033395;28;20841;-78
2023/02/18 02:12:45;;;;;;;19.57;13.97;;;11.30;99.90;;;;;;5031804;28;20460;-78
2023/02/18 02:15:41;;;;;;;15.90;12.53;;;11.20;99.90;;;;;;5031876;28;20417;-78
2023/02/18 02:18:16;;;;;;;16.43;12.47;;;11.20;99.90;;;;;;5027396;28;20533;-78
2023/02/18 02:21:07;;;;;;;18.43;12.43;;;11.20;99.90;;;;;;5032319;28;20416;-78
2023/02/18 02:23:56;;;;;;;16.40;13.30;;;11.20;99.90;;;;;;5032858;28;20511;-78
2023/02/18 02:26:50;;;;;;;12.60;10.87;;;11.20;99.90;;;;;;5033397;28;20411;-77
2023/02/18 02:29:30;;;;;;;18.07;12.03;;;11.20;99.90;;;;;;5027829;28;20417;-79
2023/02/18 02:32:19;;;;;;;16.00;12.30;;;11.20;99.90;;;;;;5030945;28;20432;-77
2023/02/18 02:34:50;;;;;;;14.63;11.13;;;11.20;99.90;;;;;;5031940;28;20414;-78
2023/02/18 02:37:24;;;;;;;15.57;12.67;;;11.30;99.90;;;;;;5030757;28;20468;-78
2023/02/18 02:40:21;;;;;;;12.60;9.60;;;11.30;99.90;;;;;;5014119;28;20468;-77
2023/02/18 02:43:05;;;;;;;11.90;10.33;;;11.20;99.90;;;;;;5030409;28;20472;-78
2023/02/18 02:45:45;;;;;;;13.30;10.57;;;11.20;99.90;;;;;;5032196;28;20421;-77
2023/02/18 02:48:23;;;;;;;12.17;10.27;;;11.20;99.90;;;;;;5030634;28;20781;-78
2023/02/18 02:51:18;;;;;;;10.83;9.10;;;11.20;99.90;;;;;;5031851;28;20412;-78
2023/02/18 02:53:44;;;;;;;13.50;10.37;;;11.20;99.90;;;;;;5031697;28;20467;-78
2023/02/18 02:56:20;;;;;;;11.40;9.27;;;11.10;99.90;;;;;;5030502;28;20906;-78
2023/02/18 02:58:58;;;;;;;10.27;8.80;;;11.20;99.90;;;;;;5031502;28;20457;-77
2023/02/18 03:01:29;;;;;;;10.03;8.60;;;11.20;99.90;;;;;;5028059;28;20852;-78
2023/02/18 03:04:03;;;;;;;10.27;8.57;;;11.20;99.90;;;;;;5033022;28;20428;-78
2023/02/18 03:06:46;;;;;;;10.60;9.33;;;11.20;99.90;;;;;;5034252;28;20417;-78
2023/02/18 03:09:42;;;;;;;10.80;9.03;;;11.20;99.90;;;;;;5030273;28;20610;-79
2023/02/18 03:12:39;;;;;;;10.60;9.33;;;11.20;99.90;;;;;;5027670;28;20453;-78
2023/02/18 03:15:21;;;;;;;10.80;9.23;;;11.20;99.90;;;;;;5025036;28;20413;-78
2023/02/18 03:17:46;;;;;;;8.73;7.70;;;11.10;99.90;;;;;;5030048;28;20559;-78
2023/02/18 03:20:39;;;;;;;9.10;8.13;;;11.20;99.90;;;;;;5030865;28;20464;-78
2023/02/18 03:23:09;;;;;;;9.57;8.23;;;11.20;99.90;;;;;;5024572;28;20452;-78
2023/02/18 03:25:37;;;;;;;10.27;9.17;;;11.20;99.90;;;;;;5031151;28;20417;-78
2023/02/18 03:28:17;;;;;;;11.33;9.03;;;11.10;99.90;;;;;;5029727;28;20463;-78
2023/02/18 03:30:57;;;;;;;10.57;8.50;;;11.10;99.90;;;;;;5030839;28;20432;-78
2023/02/18 03:33:28;;;;;;;9.20;7.83;;;11.10;99.90;;;;;;5030728;28;20441;-78
2023/02/18 03:35:55;;;;;;;10.47;8.30;;;11.10;99.90;;;;;;5023419;28;20444;-78
2023/02/18 03:38:27;;;;;;;9.83;7.80;;;11.10;99.90;;;;;;5030423;28;20558;-78
2023/02/18 03:40:53;;;;;;;10.37;8.10;;;11.20;99.90;;;;;;5034797;28;20432;-78
2023/02/18 03:43:19;;;;;;;10.10;8.03;;;11.20;99.90;;;;;;5030410;28;20432;-78
2023/02/18 03:45:44;;;;;;;9.90;7.90;;;11.20;99.90;;;;;;5030678;28;20305;-78
2023/02/18 03:48:10;;;;;;;9.47;8.30;;;11.10;99.90;;;;;;5029816;28;20252;-77
2023/02/18 03:50:35;;;;;;;10.67;8.37;;;11.10;99.90;;;;;;5031579;28;20182;-77
2023/02/18 03:53:01;;;;;;;12.47;8.90;;;11.10;99.90;;;;;;5030334;28;20264;-77
2023/02/18 03:55:27;;;;;;;11.80;8.43;;;11.20;99.90;;;;;;5031892;28;20301;-77
2023/02/18 03:57:53;;;;;;;14.30;10.30;;;11.10;99.90;;;;;;5030699;28;20217;-77
2023/02/18 04:00:19;;;;;;;12.13;9.53;;;11.00;99.90;;;;;;5032271;28;20584;-77
2023/02/18 04:02:45;;;;;;;14.27;9.57;;;11.00;99.90;;;;;;5030017;28;20429;-77
2023/02/18 04:05:11;;;;;;;14.73;9.90;;;11.10;99.90;;;;;;5036197;28;20426;-77
2023/02/18 04:07:37;;;;;;;14.73;10.80;;;11.10;99.90;;;;;;5030255;28;20408;-77
2023/02/18 04:10:04;;;;;;;13.83;10.13;;;11.10;99.90;;;;;;5030376;28;20504;-77
2023/02/18 04:12:30;;;;;;;13.03;9.63;;;11.10;99.90;;;;;;5028720;28;20317;-77
2023/02/18 04:14:55;;;;;;;12.40;9.00;;;11.10;99.90;;;;;;5028780;28;20504;-77
2023/02/18 04:17:21;;;;;;;13.80;10.20;;;11.10;99.90;;;;;;5030037;28;20186;-77
2023/02/18 04:19:46;;;;;;;12.27;9.40;;;11.10;99.90;;;;;;5028906;28;20264;-77
2023/02/18 04:22:12;;;;;;;11.10;9.33;;;11.20;99.90;;;;;;5028582;28;20206;-77
2023/02/18 04:24:38;;;;;;;12.90;9.77;;;11.20;99.90;;;;;;5030107;28;20258;-77
2023/02/18 04:27:03;;;;;;;12.80;9.07;;;11.10;99.90;;;;;;5030181;28;20192;-76
2023/02/18 04:29:29;;;;;;;13.30;9.70;;;11.10;99.90;;;;;;5028149;28;20183;-78
2023/02/18 04:31:55;;;;;;;11.77;8.73;;;11.10;99.90;;;;;;5012411;28;20202;-77
2023/02/18 04:34:20;;;;;;;15.30;9.53;;;11.10;99.90;;;;;;5029746;28;20539;-76
2023/02/18 04:36:46;;;;;;;12.40;9.07;;;11.10;99.90;;;;;;5028824;28;20185;-77
2023/02/18 04:39:12;;;;;;;12.40;8.77;;;11.10;99.90;;;;;;5028764;28;20206;-77
2023/02/18 04:41:37;;;;;;;11.53;8.67;;;11.10;99.90;;;;;;5029642;28;20221;-77
2023/02/18 04:44:03;;;;;;;12.23;8.60;;;11.10;99.90;;;;;;5029616;28;20185;-78
2023/02/18 04:46:29;;;;;;;10.80;7.37;;;11.10;99.90;;;;;;5029830;28;20550;-77
2023/02/18 04:48:54;;;;;;;10.70;7.73;;;11.10;99.90;;;;;;5028292;28;20190;-77
2023/02/18 04:51:20;;;;;;;7.40;5.90;;;11.20;99.90;;;;;;5029477;28;20187;-77
2023/02/18 04:53:45;;;;;;;7.10;5.73;;;11.20;99.90;;;;;;5028196;28;20634;-77
2023/02/18 04:56:11;;;;;;;6.17;5.03;;;11.20;99.90;;;;;;5028341;28;20194;-78
2023/02/18 04:58:37;;;;;;;6.83;4.67;;;11.10;99.90;;;;;;5029791;28;20238;-77
2023/02/18 05:01:03;;;;;;;5.23;4.27;;;11.10;99.90;;;;;;5028831;28;20269;-77
2023/02/18 05:03:29;;;;;;;4.10;2.97;;;11.10;99.90;;;;;;5028383;28;20260;-77
2023/02/18 05:05:55;;;;;;;5.30;3.60;;;11.10;99.90;;;;;;5030524;28;20427;-77
2023/02/18 05:08:21;;;;;;;4.70;3.30;;;11.10;99.90;;;;;;5028684;28;20421;-78
2023/02/18 05:10:47;;;;;;;4.53;3.40;;;11.10;99.90;;;;;;5028637;28;20351;-77
2023/02/18 05:13:12;;;;;;;2.53;2.30;;;11.00;99.90;;;;;;5030181;28;20480;-77
2023/02/18 05:15:38;;;;;;;3.27;2.57;;;11.00;99.90;;;;;;5029606;28;20187;-77
2023/02/18 05:18:04;;;;;;;2.70;2.20;;;11.00;99.90;;;;;;5027963;28;20194;-77
2023/02/18 05:20:30;;;;;;;2.43;2.10;;;11.00;99.90;;;;;;5029836;28;20193;-77
2023/02/18 05:22:56;;;;;;;1.90;1.70;;;11.00;99.90;;;;;;5030176;28;20532;-77
2023/02/18 05:25:21;;;;;;;1.87;1.70;;;11.00;99.90;;;;;;5030635;28;20428;-78
2023/02/18 05:27:47;;;;;;;1.70;1.53;;;11.00;99.90;;;;;;5030112;28;20183;-77
2023/02/18 05:30:13;;;;;;;2.03;1.83;;;11.10;99.90;;;;;;5028762;28;20183;-76
2023/02/18 05:32:38;;;;;;;2.07;1.87;;;11.00;99.90;;;;;;5029513;28;20264;-77
2023/02/18 05:35:04;;;;;;;1.50;1.40;;;11.00;99.90;;;;;;5029505;28;20197;-77
2023/02/18 05:37:30;;;;;;;2.10;1.43;;;11.00;99.90;;;;;;5029111;28;20667;-77
2023/02/18 05:39:56;;;;;;;1.57;1.43;;;11.00;99.90;;;;;;5029291;28;20492;-78
2023/02/18 05:42:22;;;;;;;1.50;1.30;;;11.00;99.90;;;;;;5027766;28;20528;-76
2023/02/18 05:44:48;;;;;;;1.90;1.40;;;11.00;99.90;;;;;;5028579;28;20175;-77
2023/02/18 05:47:14;;;;;;;1.50;1.40;;;11.00;99.90;;;;;;5028715;28;20539;-77
2023/02/18 05:49:41;;;;;;;1.63;1.53;;;11.00;99.90;;;;;;5028705;28;20194;-77
2023/02/18 05:52:07;;;;;;;1.53;1.40;;;10.90;99.90;;;;;;5028858;28;21033;-77
2023/02/18 05:54:34;;;;;;;1.30;1.20;;;10.90;99.90;;;;;;5027415;28;20770;-77
2023/02/18 05:56:59;;;;;;;1.20;1.10;;;11.00;99.90;;;;;;5028454;28;20472;-77
2023/02/18 05:59:25;;;;;;;1.80;1.33;;;11.00;99.90;;;;;;5009304;28;20496;-77
2023/02/18 06:01:51;;;;;;;1.40;1.30;;;11.00;99.90;;;;;;5027187;28;20429;-77
2023/02/18 06:04:17;;;;;;;1.57;1.47;;;11.00;99.90;;;;;;5028463;28;20628;-77
2023/02/18 06:06:43;;;;;;;1.63;1.53;;;10.90;99.90;;;;;;5028890;28;20182;-77
2023/02/18 06:09:09;;;;;;;1.60;1.50;;;10.90;99.90;;;;;;5028455;28;20183;-78
2023/02/18 06:11:35;;;;;;;1.57;1.43;;;10.90;99.90;;;;;;5027093;28;20544;-77
2023/02/18 06:14:01;;;;;;;2.03;1.83;;;10.80;99.90;;;;;;5028414;28;20981;-77
2023/02/18 06:16:27;;;;;;;2.07;1.83;;;10.90;99.90;;;;;;5027454;28;20421;-76
2023/02/18 06:18:54;;;;;;;2.33;1.80;;;10.90;99.90;;;;;;5028269;28;20453;-76
2023/02/18 06:21:20;;;;;;;2.33;2.13;;;10.90;99.90;;;;;;5028474;28;20491;-77
2023/02/18 06:23:45;;;;;;;2.50;2.30;;;10.90;99.90;;;;;;5027115;28;20496;-77
2023/02/18 06:26:11;;;;;;;2.17;1.97;;;10.90;99.90;;;;;;5029009;28;20175;-77
2023/02/18 06:28:36;;;;;;;2.47;2.27;;;10.90;99.90;;;;;;5027203;28;20208;-77
2023/02/18 06:31:02;;;;;;;2.07;1.87;;;10.90;99.90;;;;;;5028482;28;20262;-77
2023/02/18 06:33:28;;;;;;;2.80;2.60;;;10.90;99.90;;;;;;5026772;28;20206;-77
2023/02/18 06:35:56;;;;;;;3.27;2.90;;;10.80;99.90;;;;;;5028372;28;20182;-77
2023/02/18 06:38:22;;;;;;;2.90;2.40;;;10.80;99.90;;;;;;5027917;28;20227;-77
2023/02/18 06:40:48;;;;;;;3.23;2.43;;;10.70;99.90;;;;;;5027954;28;20504;-77
2023/02/18 06:43:13;;;;;;;3.00;2.70;;;10.80;99.90;;;;;;5028072;28;20429;-77
2023/02/18 06:45:39;;;;;;;2.90;2.27;;;10.80;99.90;;;;;;5028390;28;20574;-78
2023/02/18 06:48:05;;;;;;;3.40;2.40;;;10.80;99.90;;;;;;5026904;28;20188;-77
2023/02/18 06:50:31;;;;;;;2.20;2.00;;;10.80;99.90;;;;;;5027328;28;20252;-77
2023/02/18 06:52:58;;;;;;;2.83;2.53;;;10.70;99.90;;;;;;5027580;28;20202;-77
2023/02/18 06:55:24;;;;;;;3.00;2.53;;;10.70;99.90;;;;;;5028003;28;20213;-77
2023/02/18 06:57:50;;;;;;;3.00;2.67;;;10.70;99.90;;;;;;5034054;28;20423;-77
2023/02/18 07:00:16;;;;;;;2.70;2.10;;;10.70;99.90;;;;;;5050344;28;20546;-77
2023/02/18 07:02:42;;;;;;;1.97;1.77;;;10.70;99.90;;;;;;5044194;28;20564;-77
2023/02/18 07:05:08;;;;;;;2.93;2.50;;;10.70;99.90;;;;;;5026090;28;20507;-77
2023/02/18 07:07:33;;;;;;;2.90;2.60;;;10.70;99.90;;;;;;5032897;28;20658;-77
2023/02/18 07:09:59;;;;;;;2.63;2.40;;;10.80;99.90;;;;;;5035549;28;20192;-76
2023/02/18 07:12:26;;;;;;;2.70;2.40;;;10.80;99.90;;;;;;5032633;28;20271;-77
2023/02/18 07:14:51;;;;;;;3.40;2.57;;;10.80;99.90;;;;;;5033044;28;20776;-77
2023/02/18 07:17:17;;;;;;;2.73;2.43;;;10.80;99.90;;;;;;5032894;28;20413;-76
2023/02/18 07:19:43;;;;;;;3.60;3.27;;;10.80;99.90;;;;;;5032403;28;20249;-76
2023/02/18 07:22:09;;;;;;;3.30;2.70;;;10.80;99.90;;;;;;5031444;28;20969;-76
2023/02/18 07:24:34;;;;;;;3.60;2.80;;;10.80;99.90;;;;;;5031082;28;20179;-76
2023/02/18 07:27:00;;;;;;;2.77;2.47;;;10.80;99.90;;;;;;5031415;28;20183;-76
2023/02/18 07:29:26;;;;;;;2.70;2.50;;;10.80;99.90;;;;;;5031029;28;20171;-76
2023/02/18 07:31:52;;;;;;;3.20;2.73;;;10.70;99.90;;;;;;5031341;28;20206;-77
2023/02/18 07:34:18;;;;;;;2.80;2.50;;;10.70;99.90;;;;;;5028500;28;20195;-77
2023/02/18 07:36:44;;;;;;;4.70;2.57;;;10.70;99.90;;;;;;5030767;28;20425;-77
2023/02/18 07:39:10;;;;;;;2.40;2.10;;;10.70;99.90;;;;;;5016981;28;20827;-76
2023/02/18 07:41:35;;;;;;;2.90;2.63;;;10.70;99.90;;;;;;5035347;28;20206;-77
2023/02/18 07:44:01;;;;;;;2.70;2.27;;;10.70;99.90;;;;;;5030667;28;20182;-77
2023/02/18 07:46:27;;;;;;;3.10;1.90;;;10.70;99.90;;;;;;5031032;28;20225;-77
2023/02/18 07:48:52;;;;;;;2.50;2.10;;;10.70;99.90;;;;;;5030719;28;20182;-77
2023/02/18 07:51:18;;;;;;;2.50;2.30;;;10.60;99.90;;;;;;5029492;28;20635;-77
2023/02/18 07:53:44;;;;;;;2.73;2.07;;;10.60;99.90;;;;;;5029444;28;20631;-77
2023/02/18 07:56:10;;;;;;;2.00;1.80;;;10.60;99.90;;;;;;5029531;28;20189;-76
2023/02/18 07:58:38;;;;;;;2.80;1.80;;;10.60;99.90;;;;;;5030494;28;20243;-77
2023/02/18 08:01:10;;;;;;;1.70;1.47;;;10.60;99.90;;;;;;5028086;28;20706;-77
2023/02/18 08:03:36;;;;;;;3.47;2.17;;;10.60;99.90;;;;;;5029200;28;20527;-77
2023/02/18 08:06:03;;;;;;;2.80;1.70;;;10.60;99.90;;;;;;5029867;28;20420;-77
2023/02/18 08:08:31;;;;;;;1.60;1.50;;;10.60;99.90;;;;;;5029375;28;20785;-77
2023/02/18 08:11:00;;;;;;;2.43;1.33;;;10.70;99.90;;;;;;5030072;28;21073;-77
2023/02/18 08:13:26;;;;;;;1.87;1.40;;;10.60;99.90;;;;;;5029550;28;20525;-76
2023/02/18 08:15:55;;;;;;;1.60;1.37;;;10.70;99.90;;;;;;5027046;28;20516;-77
2023/02/18 08:18:22;;;;;;;1.37;1.07;;;10.70;99.90;;;;;;5027565;28;20206;-77
2023/02/18 08:20:50;;;;;;;1.27;1.07;;;10.70;99.90;;;;;;5029886;28;20428;-77
2023/02/18 08:23:21;;;;;;;1.27;1.07;;;10.70;99.90;;;;;;5028687;28;20441;-77
2023/02/18 08:25:50;;;;;;;2.17;1.13;;;10.70;99.90;;;;;;5030340;28;20425;-77
2023/02/18 08:28:18;;;;;;;1.80;1.10;;;10.70;99.90;;;;;;5030105;28;20425;-77
2023/02/18 08:30:45;;;;;;;1.63;1.13;;;10.70;99.90;;;;;;5029340;28;20957;-77
2023/02/18 08:33:11;;;;;;;1.30;1.07;;;10.60;99.90;;;;;;5029432;28;20471;-77
2023/02/18 08:35:37;;;;;;;2.80;1.10;;;10.60;99.90;;;;;;5028393;28;20957;-77
2023/02/18 08:38:02;;;;;;;1.53;1.10;;;10.60;99.90;;;;;;5027743;28;20182;-77
2023/02/18 08:40:28;;;;;;;1.13;0.80;;;10.70;99.90;;;;;;5031666;28;20182;-77
2023/02/18 08:42:54;;;;;;;1.10;0.90;;;10.70;99.90;;;;;;5028636;28;20233;-77
2023/02/18 08:45:19;;;;;;;1.30;1.07;;;10.70;99.90;;;;;;5029881;28;20702;-77
2023/02/18 08:47:45;;;;;;;1.20;1.07;;;10.70;99.90;;;;;;5028177;28;20179;-75
2023/02/18 08:50:11;;;;;;;1.23;1.10;;;10.70;99.90;;;;;;5029603;28;20265;-75
2023/02/18 08:52:36;;;;;;;4.40;1.50;;;10.60;99.90;;;;;;5028453;28;20675;-77
2023/02/18 08:55:04;;;;;;;2.20;1.43;;;10.60;99.90;;;;;;5029621;28;20444;-78
2023/02/18 08:57:29;;;;;;;2.53;1.37;;;10.60;99.90;;;;;;5028228;28;20186;-77
2023/02/18 08:59:55;;;;;;;2.80;2.30;;;10.50;99.90;;;;;;5010615;28;20527;-77
2023/02/18 09:02:21;;;;;;;3.10;2.53;;;10.50;99.90;;;;;;5029969;28;20198;-78
2023/02/18 09:04:47;;;;;;;3.10;2.13;;;10.40;99.90;;;;;;5028456;28;20189;-78
2023/02/18 09:07:12;;;;;;;7.03;3.13;;;10.40;99.90;;;;;;5028489;28;20178;-78
2023/02/18 09:09:38;;;;;;;5.47;2.47;;;10.40;99.90;;;;;;5029036;28;20432;-77
2023/02/18 09:12:04;;;;;;;5.77;2.30;;;10.40;99.90;;;;;;5029003;28;20222;-77
2023/02/18 09:14:30;;;;;;;5.80;2.40;;;10.30;99.90;;;;;;5029171;28;20206;-77
2023/02/18 09:16:57;;;;;;;5.37;2.17;;;10.30;99.90;;;;;;5011028;28;20433;-77
2023/02/18 09:19:23;;;;;;;3.77;2.27;;;10.30;99.90;;;;;;5029045;28;20244;-77
2023/02/18 09:21:51;;;;;;;3.13;2.93;;;10.30;99.90;;;;;;5027860;28;20437;-77
2023/02/18 09:24:19;;;;;;;4.13;1.97;;;10.30;99.90;;;;;;5011209;28;20737;-77
2023/02/18 09:26:44;;;;;;;5.63;2.33;;;10.30;99.90;;;;;;5027144;28;20425;-78
2023/02/18 09:29:10;;;;;;;3.37;2.40;;;10.30;99.90;;;;;;5026657;28;20425;-78
2023/02/18 09:31:38;;;;;;;4.33;2.80;;;10.30;99.90;;;;;;5019191;28;20289;-77
2023/02/18 09:34:04;;;;;;;5.50;1.97;;;10.30;99.90;;;;;;5016837;28;20316;-77
2023/02/18 09:36:30;;;;;;;7.70;2.63;;;10.30;99.90;;;;;;5019976;28;20496;-77
2023/02/18 09:38:56;;;;;;;4.43;2.50;;;10.30;99.90;;;;;;5020019;28;20465;-77
2023/02/18 09:41:44;;;;;;;5.33;2.50;;;10.30;99.90;;;;;;5018901;28;20918;-75
2023/02/18 09:44:20;;;;;;;5.03;2.83;;;10.30;99.90;;;;;;5019663;28;20663;-78
2023/02/18 09:47:14;;;;;;;3.83;2.70;;;10.20;99.90;;;;;;5019065;28;20926;-78
2023/02/18 09:49:48;;;;;;;5.70;3.30;;;10.30;99.90;;;;;;5025079;28;20483;-78
2023/02/18 09:52:16;;;;;;;4.20;2.50;;;10.20;99.90;;;;;;5028331;28;20464;-78
2023/02/18 09:54:42;;;;;;;8.17;3.10;;;10.20;99.90;;;;;;5028993;28;20421;-78
2023/02/18 09:57:26;;;;;;;6.10;3.10;;;10.20;99.90;;;;;;5027491;28;20791;-78
2023/02/18 10:00:00;;;;;;;9.80;3.07;;;10.30;99.90;;;;;;5013406;28;20297;-79
2023/02/18 10:02:27;;;;;;;9.40;3.13;;;10.30;99.90;;;;;;5013147;28;20452;-78
2023/02/18 10:04:56;;;;;;;6.67;3.70;;;10.30;99.90;;;;;;5028357;28;20425;-77
2023/02/18 10:07:27;;;;;;;9.40;3.70;;;10.40;99.90;;;;;;5010370;28;20418;-77
2023/02/18 10:09:55;;;;;;;7.37;3.20;;;10.30;99.90;;;;;;5024275;28;20436;-77
2023/02/18 10:12:23;;;;;;;4.23;2.63;;;10.30;99.90;;;;;;5027387;28;20457;-78
2023/02/18 10:14:55;;;;;;;9.17;3.23;;;10.30;99.90;;;;;;5035718;28;20976;-78
2023/02/18 10:17:24;;;;;;;10.20;3.23;;;10.30;99.90;;;;;;5034077;28;20417;-78
2023/02/18 10:19:52;;;;;;;7.90;3.50;;;10.30;99.90;;;;;;5048266;28;20585;-78
2023/02/18 10:22:19;;;;;;;5.20;3.10;;;10.30;99.90;;;;;;5022776;28;20465;-77
2023/02/18 10:24:46;;;;;;;7.77;3.17;;;10.30;99.90;;;;;;5041740;28;20516;-78
2023/02/18 10:27:22;;;;;;;7.43;3.60;;;10.30;99.90;;;;;;5036586;28;20849;-78
2023/02/18 10:29:48;;;;;;;7.10;3.53;;;10.30;99.90;;;;;;5030007;28;20439;-79
2023/02/18 10:32:23;;;;;;;10.80;3.47;;;10.20;99.90;;;;;;5032432;28;20445;-78
2023/02/18 10:35:35;;;;;;;4.80;2.97;;;10.30;99.90;;;;;;5025310;28;20425;-78
2023/02/18 10:38:38;;;;;;;10.67;3.30;;;10.20;99.90;;;;;;5012785;28;20433;-78
2023/02/18 10:41:13;;;;;;;8.43;3.87;;;10.20;99.90;;;;;;5050501;28;20477;-79
2023/02/18 10:44:00;;;;;;;7.80;4.07;;;10.20;99.90;;;;;;5052375;28;20444;-78
2023/02/18 10:46:45;;;;;;;6.30;3.23;;;10.20;99.90;;;;;;5034995;28;20924;-78
2023/02/18 10:49:33;;;;;;;11.10;3.80;;;10.30;99.90;;;;;;5052576;28;20440;-78
2023/02/18 10:52:02;;;;;;;6.83;3.43;;;10.30;99.90;;;;;;5051422;28;20439;-78
2023/02/18 10:54:49;;;;;;;6.90;3.20;;;10.30;99.90;;;;;;5052790;28;20420;-78
2023/02/18 10:57:21;;;;;;;7.23;3.13;;;10.30;99.90;;;;;;5036214;28;20520;-78
2023/02/18 11:00:18;;;;;;;7.63;3.63;;;10.40;99.90;;;;;;5032459;28;20461;-78
2023/02/18 11:02:43;;;;;;;8.87;3.27;;;10.20;99.90;;;;;;5030162;28;20432;-78
2023/02/18 11:05:22;;;;;;;9.00;3.53;;;10.30;99.90;;;;;;5032152;28;20787;-78
2023/02/18 11:07:50;;;;;;;7.43;3.57;;;10.30;99.90;;;;;;5032023;28;20948;-78
2023/02/18 11:10:31;;;;;;;4.47;3.40;;;10.30;99.90;;;;;;5030594;28;20413;-77
2023/02/18 11:13:01;;;;;;;5.60;3.33;;;10.30;99.90;;;;;;5030572;28;20527;-77
2023/02/18 11:15:28;;;;;;;5.37;3.20;;;10.30;99.90;;;;;;5032060;28;20413;-78
2023/02/18 11:17:58;;;;;;;3.70;3.10;;;10.30;99.90;;;;;;5031383;28;20409;-78
2023/02/18 11:20:36;;;;;;;8.23;3.50;;;10.20;99.90;;;;;;5030276;28;20496;-78
2023/02/18 11:23:04;;;;;;;4.37;3.13;;;10.30;99.90;;;;;;5030091;28;20958;-78
2023/02/18 11:25:33;;;;;;;6.67;3.30;;;10.30;99.90;;;;;;5030611;28;20421;-79
2023/02/18 11:28:20;;;;;;;6.93;3.50;;;10.30;99.90;;;;;;5031433;28;20448;-77
2023/02/18 11:30:52;;;;;;;6.90;3.10;;;10.30;99.90;;;;;;5031582;28;20428;-78
2023/02/18 11:33:19;;;;;;;4.10;2.87;;;10.30;99.90;;;;;;5031199;28;20973;-77
2023/02/18 11:35:56;;;;;;;5.00;2.90;;;10.30;99.90;;;;;;5031838;28;20478;-78
2023/02/18 11:38:33;;;;;;;8.17;3.50;;;10.30;99.90;;;;;;5027727;28;20518;-78
2023/02/18 11:41:07;;;;;;;4.30;3.03;;;10.30;99.90;;;;;;5032330;28;20972;-79
2023/02/18 11:43:33;;;;;;;4.60;2.43;;;10.30;99.90;;;;;;5030719;28;20518;-77
2023/02/18 11:46:21;;;;;;;3.13;2.17;;;10.20;99.90;;;;;;5031411;28;20845;-77
2023/02/18 11:48:48;;;;;;;3.40;2.97;;;10.20;99.90;;;;;;5030899;28;20432;-78
2023/02/18 11:51:24;;;;;;;3.37;2.40;;;10.30;99.90;;;;;;5029964;28;20421;-78
2023/02/18 11:54:31;;;;;;;3.10;2.47;;;10.30;99.90;;;;;;5029323;28;20433;-78
2023/02/18 11:57:04;;;;;;;3.00;2.53;;;10.20;99.90;;;;;;5027300;28;20420;-78
2023/02/18 11:59:34;;;;;;;3.57;2.43;;;10.20;99.90;;;;;;5028703;28;20551;-78
2023/02/18 12:02:38;;;;;;;3.17;2.53;;;10.30;99.90;;;;;;5032208;28;20473;-78
2023/02/18 12:05:11;;;;;;;3.57;2.40;;;10.20;99.90;;;;;;5037144;28;20879;-78
2023/02/18 12:07:54;;;;;;;3.37;2.40;;;10.30;99.90;;;;;;5031303;28;20491;-79
2023/02/18 12:10:27;;;;;;;3.80;2.70;;;10.30;99.90;;;;;;5035666;28;20421;-77
2023/02/18 12:12:53;;;;;;;4.87;3.43;;;10.30;99.90;;;;;;5031040;28;20441;-77
2023/02/18 12:15:30;;;;;;;3.20;2.43;;;10.30;99.90;;;;;;5037210;28;20451;-77
2023/02/18 12:18:24;;;;;;;2.40;2.20;;;10.30;99.90;;;;;;5038910;28;20170;-77
2023/02/18 12:21:11;;;;;;;2.60;2.20;;;10.30;99.90;;;;;;5036712;28;20432;-78
2023/02/18 12:23:43;;;;;;;3.20;2.60;;;10.30;99.90;;;;;;5037933;28;20467;-77
2023/02/18 12:26:21;;;;;;;3.10;2.40;;;10.30;99.90;;;;;;5036884;28;20441;-77
2023/02/18 12:28:53;;;;;;;3.50;2.70;;;10.30;99.90;;;;;;5035664;28;20444;-78
2023/02/18 12:31:25;;;;;;;3.13;2.83;;;10.30;99.90;;;;;;5039564;28;20406;-77
2023/02/18 12:34:12;;;;;;;3.53;2.67;;;10.30;99.90;;;;;;5038322;28;20409;-77
2023/02/18 12:36:52;;;;;;;3.13;2.60;;;10.40;99.90;;;;;;5031893;28;20416;-78
2023/02/18 12:39:28;;;;;;;3.17;2.67;;;10.30;99.90;;;;;;5036793;28;20455;-77
2023/02/18 12:42:20;;;;;;;4.17;2.60;;;10.40;99.90;;;;;;5031575;28;20429;-77
2023/02/18 12:45:09;;;;;;;2.50;2.23;;;10.40;99.90;;;;;;5029728;28;20448;-77
2023/02/18 12:47:56;;;;;;;3.87;3.10;;;10.40;99.90;;;;;;5034477;28;20424;-78
2023/02/18 12:50:40;;;;;;;3.03;2.50;;;10.40;99.90;;;;;;5030762;28;20416;-78
2023/02/18 12:53:32;;;;;;;3.80;3.00;;;10.40;99.90;;;;;;5036535;28;20542;-78
2023/02/18 12:56:06;;;;;;;6.70;3.73;;;10.40;99.90;;;;;;5034260;28;20412;-78